Time;durP1;ratioP1;P1;durP2;ratioP2;P2;SDS_P1;SDS_P2;PMS_P1;PMS_P2;Temp;Humidity;BMP_temperature;BMP_pressure;BME280_temperature;BME280_humidity;BME280_pressure;Samples;Min_cycle;Max_cycle;Signal;HPM_P1;HPM_P2
2023/09/18 00:00:50;;;;;;;3.40;3.20;;;24.30;80.30;;;;;;5060279;28;20021;-46
2023/09/18 00:03:20;;;;;;;3.42;3.13;;;24.30;80.20;;;;;;5060606;28;20294;-47
2023/09/18 00:05:50;;;;;;;3.30;3.10;;;24.30;80.10;;;;;;5043558;28;20187;-46
2023/09/18 00:08:16;;;;;;;3.17;2.97;;;24.30;80.00;;;;;;5060665;28;20045;-46
2023/09/18 00:10:43;;;;;;;3.28;3.08;;;24.30;80.00;;;;;;5059832;28;20132;-45
2023/09/18 00:13:09;;;;;;;3.30;3.10;;;24.30;79.90;;;;;;5060200;28;20214;-45
2023/09/18 00:15:36;;;;;;;3.53;3.22;;;24.30;79.90;;;;;;5060647;28;20039;-46
2023/09/18 00:18:03;;;;;;;3.40;2.83;;;24.30;80.10;;;;;;5059937;28;20032;-46
2023/09/18 00:20:29;;;;;;;3.72;3.17;;;24.30;80.10;;;;;;5060327;28;20031;-47
2023/09/18 00:22:55;;;;;;;3.20;3.00;;;24.30;80.20;;;;;;5083739;28;20036;-47
2023/09/18 00:25:22;;;;;;;3.35;3.10;;;24.20;80.00;;;;;;5122695;28;20052;-47
2023/09/18 00:27:49;;;;;;;4.38;3.10;;;24.20;80.00;;;;;;5123220;28;20031;-46
2023/09/18 00:30:15;;;;;;;3.33;3.03;;;24.20;80.10;;;;;;5123334;28;20031;-48
2023/09/18 00:32:41;;;;;;;3.20;3.00;;;24.20;80.10;;;;;;5123023;28;20031;-48
2023/09/18 00:35:07;;;;;;;3.15;2.95;;;24.20;80.10;;;;;;5122480;28;20026;-50
2023/09/18 00:37:33;;;;;;;3.13;2.92;;;24.20;79.90;;;;;;5122989;28;20551;-46
2023/09/18 00:40:00;;;;;;;3.57;2.93;;;24.20;79.90;;;;;;5122740;28;20099;-47
2023/09/18 00:42:27;;;;;;;2.90;2.70;;;24.20;79.70;;;;;;5122494;28;20060;-46
2023/09/18 00:44:53;;;;;;;3.40;3.20;;;24.20;79.60;;;;;;5120052;28;20082;-46
2023/09/18 00:47:19;;;;;;;2.97;2.77;;;24.10;79.50;;;;;;5122803;28;20031;-47
2023/09/18 00:49:47;;;;;;;3.45;3.15;;;24.20;79.60;;;;;;5114519;28;20275;-46
2023/09/18 00:52:13;;;;;;;2.88;2.67;;;24.20;79.50;;;;;;5117103;28;20036;-47
2023/09/18 00:54:39;;;;;;;3.45;3.15;;;24.10;79.30;;;;;;5122784;28;20034;-48
2023/09/18 00:57:05;;;;;;;3.25;2.67;;;24.10;79.40;;;;;;5122645;28;20135;-46
2023/09/18 00:59:32;;;;;;;3.33;3.03;;;24.10;79.50;;;;;;5114828;28;20024;-46
2023/09/18 01:01:59;;;;;;;3.20;3.00;;;24.10;79.60;;;;;;5121610;28;20031;-47
2023/09/18 01:04:26;;;;;;;3.15;2.95;;;24.10;79.60;;;;;;5120143;28;20077;-46
2023/09/18 01:06:52;;;;;;;3.35;3.10;;;24.10;79.60;;;;;;5116640;28;20040;-45
2023/09/18 01:09:19;;;;;;;3.25;3.05;;;24.10;79.70;;;;;;5122291;28;20047;-47
2023/09/18 01:11:53;;;;;;;3.60;3.30;;;24.10;79.60;;;;;;5120287;28;20028;-47
2023/09/18 01:14:51;;;;;;;3.22;3.03;;;24.10;79.50;;;;;;5114787;28;20115;-46
2023/09/18 01:17:17;;;;;;;3.20;3.00;;;24.10;79.50;;;;;;5119525;28;20015;-46
2023/09/18 01:19:45;;;;;;;3.70;3.23;;;24.10;79.30;;;;;;5121339;28;20032;-46
2023/09/18 01:22:18;;;;;;;3.08;2.88;;;24.00;79.90;;;;;;5097649;28;20268;-46
2023/09/18 01:24:47;;;;;;;3.15;2.85;;;24.00;79.20;;;;;;5114122;28;20039;-47
2023/09/18 01:27:14;;;;;;;2.92;2.72;;;24.00;79.10;;;;;;5097628;28;20040;-46
2023/09/18 01:29:41;;;;;;;3.40;3.10;;;24.00;79.10;;;;;;5121806;28;20420;-48
2023/09/18 01:32:07;;;;;;;3.25;3.05;;;24.00;79.20;;;;;;5115154;28;20086;-47
2023/09/18 01:34:50;;;;;;;2.85;2.65;;;24.00;79.30;;;;;;5123491;28;20038;-46
2023/09/18 01:37:23;;;;;;;3.55;3.10;;;24.00;79.40;;;;;;5116181;28;20103;-47
2023/09/18 01:39:50;;;;;;;3.40;3.10;;;24.00;79.50;;;;;;5111331;28;20027;-47
2023/09/18 01:42:16;;;;;;;3.58;3.05;;;24.00;79.60;;;;;;5120509;28;20024;-47
2023/09/18 01:44:43;;;;;;;3.25;2.95;;;23.90;79.40;;;;;;5121761;28;20031;-46
2023/09/18 01:47:14;;;;;;;4.53;3.10;;;23.90;79.40;;;;;;5121674;28;20032;-47
2023/09/18 01:49:42;;;;;;;2.78;2.58;;;23.90;79.40;;;;;;5121405;28;20031;-47
2023/09/18 01:52:08;;;;;;;;;;;23.90;79.40;;;;;;5114905;28;20027;-45
2023/09/18 01:54:34;;;;;;;3.20;2.95;;;23.90;79.30;;;;;;5116622;28;19934;-48
2023/09/18 01:57:01;;;;;;;3.10;2.90;;;23.90;79.30;;;;;;5124941;27;20040;-46
2023/09/18 01:59:27;;;;;;;3.30;3.00;;;23.90;79.20;;;;;;5126270;28;20054;-47
2023/09/18 02:01:53;;;;;;;3.15;2.88;;;23.90;79.20;;;;;;5125297;27;20035;-46
2023/09/18 02:04:20;;;;;;;3.10;2.90;;;23.80;79.20;;;;;;5126160;27;20047;-48
2023/09/18 02:06:47;;;;;;;3.22;2.92;;;23.80;79.20;;;;;;5118059;27;20035;-48
2023/09/18 02:09:13;;;;;;;3.20;2.90;;;23.80;79.20;;;;;;5125960;28;20023;-46
2023/09/18 02:11:44;;;;;;;3.07;2.77;;;23.80;79.10;;;;;;5125524;28;20086;-50
2023/09/18 02:14:10;;;;;;;2.83;2.63;;;23.80;79.20;;;;;;5118476;27;20038;-45
2023/09/18 02:16:37;;;;;;;3.10;2.90;;;23.80;79.20;;;;;;5125628;28;20085;-46
2023/09/18 02:19:04;;;;;;;3.28;2.97;;;23.80;79.20;;;;;;5125488;28;20036;-46
2023/09/18 02:21:31;;;;;;;3.20;2.90;;;23.80;79.20;;;;;;5124954;27;20039;-47
2023/09/18 02:23:57;;;;;;;3.28;2.97;;;23.80;79.20;;;;;;5124589;28;20039;-46
2023/09/18 02:26:24;;;;;;;3.70;3.25;;;23.80;79.20;;;;;;5118461;27;20035;-46
2023/09/18 02:28:52;;;;;;;3.25;2.95;;;23.70;79.10;;;;;;5124097;28;20035;-46
2023/09/18 02:31:18;;;;;;;3.45;3.20;;;23.70;79.10;;;;;;5124739;27;20439;-46
2023/09/18 02:33:46;;;;;;;3.00;2.80;;;23.70;79.10;;;;;;5125053;28;20035;-47
2023/09/18 02:36:13;;;;;;;2.90;2.70;;;23.70;79.20;;;;;;5106946;28;20027;-46
2023/09/18 02:38:39;;;;;;;3.35;2.83;;;23.70;79.20;;;;;;5138762;27;20020;-47
2023/09/18 02:41:05;;;;;;;2.95;2.75;;;23.70;79.10;;;;;;5124626;28;20023;-46
2023/09/18 02:43:31;;;;;;;3.10;2.87;;;23.70;79.10;;;;;;5126192;27;20031;-47
2023/09/18 02:45:58;;;;;;;2.78;2.58;;;23.70;79.00;;;;;;5124343;27;20146;-46
2023/09/18 02:48:24;;;;;;;3.00;2.80;;;23.70;79.10;;;;;;5125012;28;20032;-46
2023/09/18 02:50:50;;;;;;;2.92;2.72;;;23.70;79.10;;;;;;5116450;28;20109;-46
2023/09/18 02:53:22;;;;;;;2.90;2.70;;;23.60;79.00;;;;;;5125132;28;20678;-47
2023/09/18 02:55:54;;;;;;;4.10;3.10;;;23.60;79.10;;;;;;5123452;28;20043;-46
2023/09/18 02:58:20;;;;;;;3.15;2.88;;;23.60;79.20;;;;;;5126773;27;20061;-46
2023/09/18 03:00:49;;;;;;;3.05;2.75;;;23.60;79.20;;;;;;5126287;27;20024;-47
2023/09/18 03:03:16;;;;;;;3.08;2.88;;;23.60;79.20;;;;;;5124897;27;20053;-47
2023/09/18 03:05:43;;;;;;;3.65;3.35;;;23.60;79.20;;;;;;5123710;28;20031;-46
2023/09/18 03:08:09;;;;;;;2.92;2.72;;;23.60;79.10;;;;;;5121205;28;20046;-46
2023/09/18 03:10:36;;;;;;;3.20;2.90;;;23.60;79.20;;;;;;5140606;27;20055;-46
2023/09/18 03:13:02;;;;;;;3.15;2.85;;;23.50;79.10;;;;;;5116705;28;20287;-46
2023/09/18 03:15:30;;;;;;;3.90;2.67;;;23.50;79.10;;;;;;5124531;28;20024;-45
2023/09/18 03:17:57;;;;;;;3.30;3.00;;;23.50;79.20;;;;;;5124499;28;20051;-46
2023/09/18 03:20:24;;;;;;;3.35;2.88;;;23.50;79.20;;;;;;5123857;28;20092;-46
2023/09/18 03:22:51;;;;;;;3.47;2.95;;;23.50;79.20;;;;;;5124223;28;20027;-46
2023/09/18 03:25:17;;;;;;;3.08;2.78;;;23.50;79.20;;;;;;5119965;28;20020;-46
2023/09/18 03:27:44;;;;;;;2.70;2.50;;;23.50;79.20;;;;;;5124292;28;20077;-46
2023/09/18 03:30:12;;;;;;;3.00;2.73;;;23.50;79.20;;;;;;5124077;28;20087;-45
2023/09/18 03:32:38;;;;;;;3.00;2.70;;;23.40;80.00;;;;;;5124284;27;20072;-47
2023/09/18 03:35:25;;;;;;;2.80;2.60;;;23.40;79.20;;;;;;5124177;28;20024;-45
2023/09/18 03:37:53;;;;;;;3.05;2.80;;;23.40;79.10;;;;;;5040818;28;20038;-45
2023/09/18 03:40:20;;;;;;;3.13;2.80;;;23.40;79.10;;;;;;5056480;28;20180;-45
2023/09/18 03:42:46;;;;;;;3.10;2.90;;;23.40;79.20;;;;;;5076943;28;20033;-45
2023/09/18 03:45:12;;;;;;;2.83;2.60;;;23.40;79.20;;;;;;5061210;28;20313;-46
2023/09/18 03:47:39;;;;;;;3.38;3.08;;;23.40;79.20;;;;;;5077432;28;20797;-46
2023/09/18 03:50:09;;;;;;;3.05;2.70;;;23.30;79.20;;;;;;5060380;28;20041;-47
2023/09/18 03:52:35;;;;;;;2.83;2.63;;;23.30;79.10;;;;;;5061040;28;20070;-46
2023/09/18 03:55:01;;;;;;;3.22;2.90;;;23.30;79.10;;;;;;5060661;28;20036;-46
2023/09/18 03:57:27;;;;;;;3.10;2.90;;;23.30;79.20;;;;;;5060246;28;20045;-46
2023/09/18 03:59:54;;;;;;;3.20;2.90;;;23.30;79.20;;;;;;5060764;28;20364;-46
2023/09/18 04:02:23;;;;;;;3.10;2.80;;;23.30;79.20;;;;;;5077124;28;20028;-48
2023/09/18 04:04:50;;;;;;;2.90;2.70;;;23.30;79.20;;;;;;5060013;28;20041;-46
2023/09/18 04:07:16;;;;;;;2.80;2.60;;;23.20;79.10;;;;;;5060462;28;20394;-46
2023/09/18 04:09:43;;;;;;;3.78;3.08;;;23.20;79.10;;;;;;5060596;28;20025;-44
2023/09/18 04:12:09;;;;;;;3.08;2.78;;;23.20;79.20;;;;;;5059899;28;20095;-46
2023/09/18 04:14:36;;;;;;;3.08;2.88;;;23.20;79.20;;;;;;5099138;27;20550;-46
2023/09/18 04:17:02;;;;;;;3.15;2.85;;;23.20;79.20;;;;;;5122035;27;20582;-46
2023/09/18 04:19:28;;;;;;;2.80;2.60;;;23.20;79.10;;;;;;5123394;28;20102;-46
2023/09/18 04:21:55;;;;;;;3.00;2.63;;;23.20;79.10;;;;;;5121635;28;20023;-46
2023/09/18 04:24:21;;;;;;;3.40;3.10;;;23.20;79.10;;;;;;5123502;28;20034;-45
2023/09/18 04:26:47;;;;;;;3.08;2.88;;;23.20;79.10;;;;;;5121941;28;20030;-46
2023/09/18 04:29:14;;;;;;;2.97;2.77;;;23.10;79.80;;;;;;5122716;28;20062;-45
2023/09/18 04:31:40;;;;;;;3.20;3.00;;;23.20;79.20;;;;;;5122360;28;20303;-47
2023/09/18 04:34:06;;;;;;;2.95;2.75;;;23.10;79.10;;;;;;5123261;28;20019;-45
2023/09/18 04:36:32;;;;;;;2.70;2.50;;;23.10;79.20;;;;;;5123448;28;20099;-47
2023/09/18 04:38:58;;;;;;;2.83;2.63;;;23.10;79.20;;;;;;5122998;28;20036;-45
2023/09/18 04:41:25;;;;;;;3.00;2.75;;;23.10;79.20;;;;;;5123449;28;20539;-46
2023/09/18 04:43:51;;;;;;;2.95;2.75;;;23.10;79.20;;;;;;5124289;27;20024;-47
2023/09/18 04:46:17;;;;;;;3.75;2.80;;;23.10;79.20;;;;;;5111900;28;20032;-45
2023/09/18 04:48:43;;;;;;;3.15;2.80;;;23.10;79.20;;;;;;5112782;28;20032;-46
2023/09/18 04:51:09;;;;;;;3.38;3.05;;;23.00;80.00;;;;;;5115008;28;20058;-45
2023/09/18 04:53:35;;;;;;;2.83;2.63;;;23.00;79.20;;;;;;5115392;28;20039;-47
2023/09/18 04:56:03;;;;;;;2.88;2.67;;;23.00;79.20;;;;;;5119277;28;20039;-47
2023/09/18 04:58:29;;;;;;;4.10;3.00;;;23.00;79.20;;;;;;5117641;28;20028;-46
2023/09/18 05:00:56;;;;;;;3.65;3.35;;;23.00;79.20;;;;;;5118030;28;20031;-45
2023/09/18 05:03:22;;;;;;;2.60;2.40;;;23.00;79.20;;;;;;5122629;28;20035;-46
2023/09/18 05:05:49;;;;;;;3.00;2.70;;;22.90;79.10;;;;;;5129107;28;20035;-47
2023/09/18 05:08:15;;;;;;;3.05;2.75;;;23.00;79.30;;;;;;5123994;28;20038;-45
2023/09/18 05:10:41;;;;;;;2.77;2.57;;;23.00;79.20;;;;;;5128984;28;20020;-47
2023/09/18 05:13:07;;;;;;;3.65;3.10;;;22.90;79.20;;;;;;5117802;28;20028;-46
2023/09/18 05:15:34;;;;;;;3.20;2.95;;;22.90;79.20;;;;;;5112592;28;20039;-46
2023/09/18 05:18:00;;;;;;;2.95;2.70;;;22.90;79.20;;;;;;5120275;28;20055;-46
2023/09/18 05:20:27;;;;;;;3.22;3.03;;;22.90;79.20;;;;;;5103564;28;20026;-45
2023/09/18 05:22:54;;;;;;;3.75;2.90;;;22.90;79.30;;;;;;5121085;28;20527;-45
2023/09/18 05:25:21;;;;;;;3.53;3.22;;;22.90;79.30;;;;;;5122441;28;20031;-46
2023/09/18 05:27:49;;;;;;;3.35;3.05;;;22.90;79.30;;;;;;5121591;28;20051;-45
2023/09/18 05:30:17;;;;;;;2.72;2.53;;;22.80;79.20;;;;;;5100019;28;20050;-45
2023/09/18 05:32:45;;;;;;;2.85;2.65;;;22.80;79.20;;;;;;5125534;27;20035;-46
2023/09/18 05:35:12;;;;;;;2.75;2.55;;;22.80;79.20;;;;;;5118696;28;20012;-45
2023/09/18 05:37:39;;;;;;;3.08;2.78;;;22.80;79.20;;;;;;5126019;28;20035;-45
2023/09/18 05:40:09;;;;;;;3.13;2.85;;;22.80;79.20;;;;;;5126050;27;20115;-45
2023/09/18 05:42:36;;;;;;;3.05;2.85;;;22.80;79.30;;;;;;5107242;28;20031;-45
2023/09/18 05:45:04;;;;;;;3.63;2.83;;;22.80;79.30;;;;;;5124749;27;20032;-45
2023/09/18 05:47:33;;;;;;;2.70;2.50;;;22.80;79.30;;;;;;5125432;28;20036;-45
2023/09/18 05:49:59;;;;;;;3.33;3.03;;;22.80;79.30;;;;;;5099069;28;20097;-45
2023/09/18 05:52:26;;;;;;;3.10;2.90;;;22.70;79.30;;;;;;5126521;28;20026;-45
2023/09/18 05:54:52;;;;;;;3.38;2.85;;;22.70;79.30;;;;;;5117659;28;20027;-45
2023/09/18 05:57:18;;;;;;;3.00;2.70;;;22.70;79.30;;;;;;5125162;28;20058;-48
2023/09/18 05:59:45;;;;;;;4.03;2.63;;;22.70;79.30;;;;;;5125283;28;20543;-46
2023/09/18 06:02:11;;;;;;;3.47;3.08;;;22.70;79.40;;;;;;5126342;28;20305;-45
2023/09/18 06:04:37;;;;;;;3.80;2.70;;;22.70;79.40;;;;;;5125773;28;20024;-45
2023/09/18 06:07:04;;;;;;;3.23;2.97;;;22.70;79.40;;;;;;5123814;28;20378;-45
2023/09/18 06:09:30;;;;;;;3.45;3.15;;;22.70;79.40;;;;;;5124962;28;20091;-45
2023/09/18 06:11:56;;;;;;;2.88;2.60;;;22.70;79.40;;;;;;5125411;27;20036;-47
2023/09/18 06:14:23;;;;;;;3.00;2.60;;;22.60;79.30;;;;;;5117692;28;20020;-45
2023/09/18 06:16:49;;;;;;;3.08;2.78;;;22.60;79.30;;;;;;5125371;27;20035;-45
2023/09/18 06:19:19;;;;;;;3.13;2.93;;;22.60;79.30;;;;;;5125619;28;20440;-45
2023/09/18 06:21:45;;;;;;;3.28;2.97;;;22.60;79.40;;;;;;5125005;28;20039;-45
2023/09/18 06:24:12;;;;;;;3.67;2.75;;;22.60;79.40;;;;;;5125803;28;20472;-44
2023/09/18 06:26:38;;;;;;;2.97;2.78;;;22.60;79.40;;;;;;5125052;28;20038;-45
2023/09/18 06:29:05;;;;;;;3.00;2.80;;;22.50;79.30;;;;;;5125324;28;20027;-44
2023/09/18 06:31:31;;;;;;;3.80;2.85;;;22.60;79.40;;;;;;5128199;27;20065;-44
2023/09/18 06:33:58;;;;;;;3.00;2.80;;;22.50;79.40;;;;;;5124354;28;20503;-47
2023/09/18 06:36:25;;;;;;;3.10;2.80;;;22.50;79.40;;;;;;5124711;28;20023;-45
2023/09/18 06:38:51;;;;;;;3.17;2.88;;;22.50;79.40;;;;;;5124259;28;20032;-44
2023/09/18 06:41:17;;;;;;;2.90;2.70;;;22.50;79.40;;;;;;5125089;28;20099;-45
2023/09/18 06:43:43;;;;;;;3.17;2.87;;;22.50;79.40;;;;;;5124871;28;20423;-44
2023/09/18 06:46:09;;;;;;;4.53;3.03;;;22.50;79.40;;;;;;5124329;28;20046;-44
2023/09/18 06:48:35;;;;;;;3.05;2.78;;;22.50;79.40;;;;;;5122239;28;20079;-45
2023/09/18 06:51:02;;;;;;;3.22;2.92;;;22.40;79.40;;;;;;5116681;27;20054;-46
2023/09/18 06:53:28;;;;;;;3.10;2.90;;;22.50;79.40;;;;;;5113608;28;20031;-47
2023/09/18 06:55:55;;;;;;;3.13;2.83;;;22.40;79.40;;;;;;5119904;27;20404;-46
2023/09/18 06:58:21;;;;;;;3.40;3.10;;;22.40;79.40;;;;;;5128016;27;20134;-45
2023/09/18 07:00:50;;;;;;;3.53;2.87;;;22.40;79.50;;;;;;5140276;27;20011;-46
2023/09/18 07:03:17;;;;;;;3.58;3.28;;;22.40;79.50;;;;;;5124800;27;20103;-45
2023/09/18 07:05:44;;;;;;;3.90;3.05;;;22.40;79.60;;;;;;5107882;28;20046;-46
2023/09/18 07:08:11;;;;;;;3.22;2.92;;;22.40;79.50;;;;;;5124529;28;20056;-46
2023/09/18 07:10:38;;;;;;;3.20;2.90;;;22.40;79.60;;;;;;5122098;27;20016;-45
2023/09/18 07:13:05;;;;;;;2.90;2.60;;;22.30;79.60;;;;;;5119399;28;20533;-46
2023/09/18 07:15:32;;;;;;;3.60;3.00;;;22.30;79.60;;;;;;5124196;28;20031;-45
2023/09/18 07:17:58;;;;;;;3.13;2.92;;;22.30;79.60;;;;;;5123875;28;20078;-45
2023/09/18 07:20:24;;;;;;;3.77;3.00;;;22.30;79.60;;;;;;5122945;28;20034;-45
2023/09/18 07:22:50;;;;;;;3.50;3.00;;;22.30;79.60;;;;;;5124950;27;20054;-45
2023/09/18 07:25:17;;;;;;;2.47;2.28;;;22.30;79.60;;;;;;5123662;28;20067;-46
2023/09/18 07:27:46;;;;;;;3.97;2.65;;;22.30;79.60;;;;;;5125640;27;20614;-45
2023/09/18 07:30:15;;;;;;;2.90;2.70;;;22.20;79.50;;;;;;5117510;27;20517;-45
2023/09/18 07:32:42;;;;;;;3.60;3.28;;;22.30;79.60;;;;;;5123807;27;20380;-45
2023/09/18 07:35:09;;;;;;;2.95;2.75;;;22.20;79.60;;;;;;5124308;27;20028;-45
2023/09/18 07:37:36;;;;;;;2.70;2.50;;;22.20;79.60;;;;;;5124113;28;20548;-44
2023/09/18 07:40:04;;;;;;;2.80;2.60;;;22.20;79.60;;;;;;5121144;28;20036;-46
2023/09/18 07:42:30;;;;;;;3.05;2.72;;;22.20;79.60;;;;;;5118772;28;20926;-46
2023/09/18 07:44:57;;;;;;;2.90;2.67;;;22.20;79.60;;;;;;5123057;27;20038;-45
2023/09/18 07:47:26;;;;;;;3.13;2.90;;;22.20;79.60;;;;;;5124041;28;20039;-45
2023/09/18 07:49:54;;;;;;;3.30;3.00;;;22.20;79.70;;;;;;5122987;28;20053;-45
2023/09/18 07:52:20;;;;;;;3.33;3.03;;;22.20;79.70;;;;;;5122703;28;20028;-45
2023/09/18 07:54:46;;;;;;;3.30;3.00;;;22.20;79.70;;;;;;5123031;28;20039;-46
2023/09/18 07:57:13;;;;;;;3.17;2.80;;;22.10;79.60;;;;;;5123682;28;20047;-45
2023/09/18 07:59:39;;;;;;;3.22;2.95;;;22.10;79.60;;;;;;5123322;28;20047;-45
2023/09/18 08:02:06;;;;;;;4.47;3.47;;;22.10;79.60;;;;;;5123057;28;20039;-45
2023/09/18 08:04:32;;;;;;;3.20;2.92;;;22.10;79.60;;;;;;5124002;28;20019;-45
2023/09/18 08:07:00;;;;;;;2.70;2.50;;;22.10;79.60;;;;;;5122294;28;20055;-45
2023/09/18 08:09:29;;;;;;;3.53;3.03;;;22.10;79.60;;;;;;5123339;28;20054;-45
2023/09/18 08:11:55;;;;;;;3.47;3.05;;;22.10;79.70;;;;;;5123258;27;20032;-46
2023/09/18 08:14:22;;;;;;;3.07;2.70;;;22.10;79.70;;;;;;5123930;28;20024;-45
2023/09/18 08:16:48;;;;;;;3.22;2.92;;;22.00;79.70;;;;;;5114660;28;20031;-45
2023/09/18 08:19:19;;;;;;;3.23;2.93;;;22.00;79.80;;;;;;5122900;27;20027;-45
2023/09/18 08:21:46;;;;;;;3.35;3.05;;;22.00;79.70;;;;;;5122364;28;20041;-45
2023/09/18 08:24:12;;;;;;;3.08;2.88;;;22.00;79.80;;;;;;5123501;28;20075;-45
2023/09/18 08:26:38;;;;;;;9.20;3.00;;;22.00;79.80;;;;;;5122945;28;20043;-46
2023/09/18 08:29:04;;;;;;;3.50;3.20;;;22.00;79.80;;;;;;5123197;28;20027;-46
2023/09/18 08:31:31;;;;;;;3.50;3.20;;;22.00;79.80;;;;;;5123076;28;20027;-45
2023/09/18 08:33:58;;;;;;;3.22;2.92;;;22.00;79.80;;;;;;5122890;28;20059;-46
2023/09/18 08:36:25;;;;;;;3.28;2.97;;;22.00;79.80;;;;;;5127113;27;20028;-45
2023/09/18 08:38:51;;;;;;;3.47;3.17;;;22.00;79.80;;;;;;5122354;28;20480;-47
2023/09/18 08:41:19;;;;;;;3.15;2.90;;;21.90;79.70;;;;;;5122837;28;20031;-45
2023/09/18 08:43:46;;;;;;;3.67;3.22;;;21.90;79.80;;;;;;5122741;28;20618;-45
2023/09/18 08:46:12;;;;;;;4.18;3.10;;;21.90;79.80;;;;;;5122706;28;20146;-44
2023/09/18 08:48:38;;;;;;;3.30;3.00;;;21.90;79.80;;;;;;5132860;27;20020;-44
2023/09/18 08:51:05;;;;;;;3.67;3.15;;;21.90;79.80;;;;;;5137770;28;20035;-44
2023/09/18 08:53:32;;;;;;;3.22;2.92;;;21.90;79.80;;;;;;5122990;28;20027;-45
2023/09/18 08:56:03;;;;;;;3.22;2.90;;;21.90;79.90;;;;;;5135857;27;20073;-44
2023/09/18 08:58:39;;;;;;;3.00;2.80;;;21.90;79.90;;;;;;5123241;28;20032;-44
2023/09/18 09:01:09;;;;;;;3.30;2.88;;;21.80;79.80;;;;;;5121093;28;20123;-44
2023/09/18 09:03:47;;;;;;;3.13;2.88;;;21.80;79.80;;;;;;5126797;28;20024;-44
2023/09/18 09:06:14;;;;;;;3.67;2.92;;;21.80;79.80;;;;;;5120067;28;20028;-44
2023/09/18 09:08:40;;;;;;;3.00;2.80;;;21.80;79.90;;;;;;5119121;28;20024;-45
2023/09/18 09:11:06;;;;;;;4.35;2.90;;;21.80;79.90;;;;;;5126243;28;20028;-44
2023/09/18 09:13:32;;;;;;;3.10;2.80;;;21.80;79.90;;;;;;5126704;28;20019;-44
2023/09/18 09:15:59;;;;;;;3.10;2.80;;;21.80;79.90;;;;;;5126078;28;20024;-44
2023/09/18 09:18:26;;;;;;;2.97;2.78;;;21.80;79.90;;;;;;5125697;28;20055;-44
2023/09/18 09:20:59;;;;;;;3.10;2.83;;;21.80;79.90;;;;;;5126077;28;20024;-44
2023/09/18 09:23:29;;;;;;;3.03;2.80;;;21.70;79.90;;;;;;5126988;28;20024;-44
2023/09/18 09:26:20;;;;;;;3.20;2.90;;;21.70;79.90;;;;;;5124319;28;20057;-43
2023/09/18 09:28:48;;;;;;;3.10;2.85;;;21.70;79.90;;;;;;5150666;27;20054;-44
2023/09/18 09:31:30;;;;;;;;;;;21.70;80.00;;;;;;5119609;28;20035;-44
2023/09/18 09:33:57;;;;;;;3.38;3.08;;;21.70;79.90;;;;;;5126439;28;20356;-44
2023/09/18 09:36:24;;;;;;;;;;;21.70;80.00;;;;;;5127226;28;20062;-44
2023/09/18 09:39:00;;;;;;;3.25;2.95;;;21.70;80.00;;;;;;5126417;28;19924;-45
2023/09/18 09:41:27;;;;;;;3.10;2.80;;;21.70;80.00;;;;;;5126325;28;20543;-44
2023/09/18 09:43:54;;;;;;;;;;;21.60;79.90;;;;;;5127048;28;20492;-43
2023/09/18 09:46:25;;;;;;;3.28;2.97;;;21.60;80.00;;;;;;5126495;28;19919;-44
2023/09/18 09:49:04;;;;;;;3.50;3.17;;;21.60;79.90;;;;;;5124995;28;20024;-44
2023/09/18 09:51:31;;;;;;;3.38;2.83;;;21.60;80.00;;;;;;5126189;28;20019;-44
2023/09/18 09:53:58;;;;;;;3.42;3.13;;;21.60;80.00;;;;;;5124291;28;20027;-44
2023/09/18 09:56:53;;;;;;;3.72;2.80;;;21.60;80.00;;;;;;5126079;28;20130;-44
2023/09/18 09:59:20;;;;;;;3.60;2.60;;;21.60;80.00;;;;;;5119634;28;20023;-44
2023/09/18 10:01:49;;;;;;;3.03;2.83;;;21.60;80.00;;;;;;5124853;28;20028;-44
2023/09/18 10:04:19;;;;;;;4.43;3.25;;;21.60;80.00;;;;;;5118612;27;20023;-43
2023/09/18 10:06:53;;;;;;;3.35;3.05;;;21.60;80.00;;;;;;5122569;28;20103;-45
2023/09/18 10:09:20;;;;;;;3.13;2.80;;;21.60;80.00;;;;;;5117083;28;20016;-44
2023/09/18 10:11:52;;;;;;;2.92;2.72;;;21.50;80.00;;;;;;5123773;28;20041;-44
2023/09/18 10:14:29;;;;;;;3.47;3.17;;;21.50;80.00;;;;;;5116845;28;20024;-45
2023/09/18 10:16:55;;;;;;;3.70;3.10;;;21.50;80.10;;;;;;5123357;28;20057;-45
2023/09/18 10:19:28;;;;;;;3.30;3.00;;;21.50;80.10;;;;;;5125171;28;20034;-44
2023/09/18 10:22:21;;;;;;;3.65;3.08;;;21.50;80.10;;;;;;5115836;28;20032;-44
2023/09/18 10:24:47;;;;;;;3.03;2.83;;;21.50;80.10;;;;;;5123188;28;20019;-44
2023/09/18 10:27:14;;;;;;;2.38;2.13;;;21.50;80.10;;;;;;5123186;28;20031;-44
2023/09/18 10:29:41;;;;;;;3.22;3.00;;;21.50;80.10;;;;;;5125819;28;20023;-45
2023/09/18 10:32:07;;;;;;;3.00;2.80;;;21.40;80.00;;;;;;5123545;27;20027;-44
2023/09/18 10:34:34;;;;;;;4.45;3.13;;;21.40;80.10;;;;;;5125562;28;20032;-43
2023/09/18 10:37:01;;;;;;;3.30;3.00;;;21.40;80.10;;;;;;5123512;28;20027;-44
2023/09/18 10:39:28;;;;;;;3.50;3.00;;;21.40;80.10;;;;;;5125739;28;20043;-43
2023/09/18 10:41:55;;;;;;;;;;;21.40;80.10;;;;;;5124919;28;20110;-45
2023/09/18 10:44:21;;;;;;;3.28;2.90;;;21.40;80.10;;;;;;5125367;28;19918;-44
2023/09/18 10:46:48;;;;;;;3.25;2.97;;;21.40;80.20;;;;;;5124698;28;20032;-45
2023/09/18 10:49:15;;;;;;;3.25;2.83;;;21.40;80.10;;;;;;5105869;28;20047;-44
2023/09/18 10:51:42;;;;;;;3.28;2.97;;;21.40;80.20;;;;;;5106269;28;20027;-44
2023/09/18 10:54:09;;;;;;;4.03;2.90;;;21.40;80.20;;;;;;5121510;28;20011;-44
2023/09/18 10:56:35;;;;;;;3.60;3.30;;;21.30;80.10;;;;;;5124232;28;20132;-45
2023/09/18 10:59:03;;;;;;;2.75;2.55;;;21.30;80.20;;;;;;5125004;27;20032;-44
2023/09/18 11:01:32;;;;;;;3.30;3.10;;;21.30;80.20;;;;;;5124800;27;20053;-45
2023/09/18 11:04:02;;;;;;;3.15;2.85;;;21.30;80.20;;;;;;5124202;27;20114;-43
2023/09/18 11:06:29;;;;;;;3.20;2.90;;;21.30;80.20;;;;;;5118732;28;20039;-43
2023/09/18 11:09:03;;;;;;;3.42;3.13;;;21.30;80.20;;;;;;5118807;28;20566;-44
2023/09/18 11:11:32;;;;;;;3.78;3.28;;;21.30;80.20;;;;;;5123942;28;20028;-45
2023/09/18 11:13:59;;;;;;;3.28;2.97;;;21.30;80.20;;;;;;5121472;27;20053;-44
2023/09/18 11:16:28;;;;;;;3.75;2.72;;;21.30;80.20;;;;;;5121662;28;20020;-44
2023/09/18 11:19:00;;;;;;;3.55;3.08;;;21.30;80.30;;;;;;5124140;28;20032;-44
2023/09/18 11:21:31;;;;;;;3.20;2.90;;;21.20;80.20;;;;;;5123206;28;20012;-45
2023/09/18 11:24:05;;;;;;;2.88;2.67;;;21.30;80.30;;;;;;5123885;28;20097;-45
2023/09/18 11:26:32;;;;;;;3.30;3.08;;;21.20;80.20;;;;;;5122716;28;20084;-46
2023/09/18 11:29:05;;;;;;;3.28;2.97;;;21.20;80.20;;;;;;5123185;27;20031;-45
2023/09/18 11:31:45;;;;;;;3.22;2.92;;;21.20;80.20;;;;;;5123633;28;20032;-45
2023/09/18 11:34:22;;;;;;;5.05;3.03;;;21.20;80.30;;;;;;5123467;28;20040;-45
2023/09/18 11:36:48;;;;;;;3.60;3.30;;;21.20;80.30;;;;;;5123778;28;20039;-45
2023/09/18 11:39:32;;;;;;;3.97;2.97;;;21.20;80.30;;;;;;5124758;28;20650;-46
2023/09/18 11:42:07;;;;;;;3.20;2.90;;;21.10;80.30;;;;;;5106568;28;20039;-45
2023/09/18 11:44:36;;;;;;;3.00;2.80;;;21.10;80.30;;;;;;5124116;28;20053;-45
2023/09/18 11:47:04;;;;;;;3.30;3.00;;;21.10;80.30;;;;;;5122949;28;20088;-45
2023/09/18 11:49:32;;;;;;;3.60;2.97;;;21.10;80.30;;;;;;5115147;28;20019;-46
2023/09/18 11:52:01;;;;;;;4.22;3.20;;;21.10;80.30;;;;;;5122888;28;20031;-45
2023/09/18 11:54:31;;;;;;;3.50;3.20;;;21.10;80.30;;;;;;5109810;28;20087;-46
2023/09/18 11:56:59;;;;;;;3.42;3.13;;;21.10;80.30;;;;;;5119555;28;20091;-45
2023/09/18 11:59:38;;;;;;;3.65;2.83;;;21.10;80.30;;;;;;5121706;28;20054;-45
2023/09/18 12:02:05;;;;;;;4.22;3.30;;;21.10;80.30;;;;;;5122703;28;20059;-46
2023/09/18 12:04:32;;;;;;;;;;;21.00;80.30;;;;;;5124679;28;20011;-45
2023/09/18 12:07:04;;;;;;;3.30;3.00;;;21.10;80.40;;;;;;5122558;28;19915;-46
2023/09/18 12:09:33;;;;;;;3.15;2.85;;;21.00;80.30;;;;;;5121957;28;20032;-45
2023/09/18 12:12:03;;;;;;;3.20;2.90;;;21.00;80.40;;;;;;5122876;28;20149;-46
2023/09/18 12:14:33;;;;;;;4.35;3.25;;;21.00;80.30;;;;;;5122456;28;20068;-46
2023/09/18 12:17:03;;;;;;;3.50;3.20;;;21.00;80.40;;;;;;5123387;28;20729;-46
2023/09/18 12:19:30;;;;;;;2.70;2.50;;;21.00;80.40;;;;;;5123851;28;20052;-45
2023/09/18 12:21:57;;;;;;;3.63;2.80;;;21.00;80.40;;;;;;5121260;28;20055;-45
2023/09/18 12:24:23;;;;;;;3.33;3.07;;;21.00;80.40;;;;;;5122199;28;20070;-45
2023/09/18 12:26:50;;;;;;;4.32;3.10;;;21.00;80.40;;;;;;5123209;28;20392;-45
2023/09/18 12:29:16;;;;;;;3.10;2.90;;;20.90;80.40;;;;;;5121855;28;20019;-45
2023/09/18 12:31:45;;;;;;;3.30;3.00;;;20.90;80.40;;;;;;5122000;28;20115;-45
2023/09/18 12:34:15;;;;;;;3.30;3.00;;;20.90;80.40;;;;;;5121274;28;20073;-45
2023/09/18 12:36:47;;;;;;;3.50;3.00;;;20.90;80.40;;;;;;5121949;28;20702;-45
2023/09/18 12:39:16;;;;;;;3.40;3.10;;;20.90;80.40;;;;;;5155022;27;20038;-45
2023/09/18 12:41:46;;;;;;;3.28;2.72;;;20.90;80.50;;;;;;5122323;28;20023;-46
2023/09/18 12:44:14;;;;;;;2.80;2.60;;;20.90;80.50;;;;;;5155882;27;20032;-44
2023/09/18 12:46:43;;;;;;;3.33;2.97;;;20.90;80.50;;;;;;5123318;28;20043;-45
2023/09/18 12:49:27;;;;;;;3.38;2.90;;;20.90;80.50;;;;;;5121195;28;20028;-45
2023/09/18 12:52:00;;;;;;;3.20;2.90;;;20.90;80.60;;;;;;5122367;28;20057;-44